sensor_id;sensor_type;location;lat;lon;timestamp;pressure;altitude;pressure_sealevel;temperature;humidity
42385;BME280;28042;43.986;22.860;2023-02-20T00:01:13;101501.31;;;10.95;68.65
42385;BME280;28042;43.986;22.860;2023-02-20T00:03:38;101498.38;;;11.04;67.32
42385;BME280;28042;43.986;22.860;2023-02-20T00:06:03;101506.78;;;11.18;66.62
42385;BME280;28042;43.986;22.860;2023-02-20T00:08:28;101494.53;;;11.14;66.33
42385;BME280;28042;43.986;22.860;2023-02-20T00:10:54;101510.91;;;11.14;66.92
42385;BME280;28042;43.986;22.860;2023-02-20T00:13:19;101498.50;;;11.03;67.38
42385;BME280;28042;43.986;22.860;2023-02-20T00:15:44;101503.81;;;11.04;67.62
42385;BME280;28042;43.986;22.860;2023-02-20T00:18:10;101515.03;;;11.10;67.43
42385;BME280;28042;43.986;22.860;2023-02-20T00:20:35;101522.09;;;11.04;67.97
42385;BME280;28042;43.986;22.860;2023-02-20T00:23:01;101517.56;;;10.88;69.73
42385;BME280;28042;43.986;22.860;2023-02-20T00:25:26;101519.34;;;10.73;71.67
42385;BME280;28042;43.986;22.860;2023-02-20T00:27:52;101526.28;;;10.53;73.25
42385;BME280;28042;43.986;22.860;2023-02-20T00:30:18;101526.66;;;10.41;74.87
42385;BME280;28042;43.986;22.860;2023-02-20T00:32:45;101539.81;;;10.30;75.25
42385;BME280;28042;43.986;22.860;2023-02-20T00:35:10;101549.22;;;10.19;75.96
42385;BME280;28042;43.986;22.860;2023-02-20T00:37:36;101544.09;;;10.16;76.23
42385;BME280;28042;43.986;22.860;2023-02-20T00:40:04;101541.56;;;10.06;76.67
42385;BME280;28042;43.986;22.860;2023-02-20T00:42:30;101534.41;;;9.97;77.13
42385;BME280;28042;43.986;22.860;2023-02-20T00:44:55;101545.50;;;9.87;77.42
42385;BME280;28042;43.986;22.860;2023-02-20T00:47:21;101539.91;;;9.81;77.72
42385;BME280;28042;43.986;22.860;2023-02-20T00:49:46;101533.78;;;9.71;78.13
42385;BME280;28042;43.986;22.860;2023-02-20T00:52:11;101537.03;;;9.58;78.48
42385;BME280;28042;43.986;22.860;2023-02-20T00:54:37;101531.06;;;9.46;79.44
42385;BME280;28042;43.986;22.860;2023-02-20T00:57:02;101530.91;;;9.40;79.97
42385;BME280;28042;43.986;22.860;2023-02-20T00:59:27;101530.56;;;9.34;80.40
42385;BME280;28042;43.986;22.860;2023-02-20T01:01:52;101533.63;;;9.31;80.68
42385;BME280;28042;43.986;22.860;2023-02-20T01:04:18;101530.53;;;9.18;81.76
42385;BME280;28042;43.986;22.860;2023-02-20T01:06:43;101537.00;;;9.09;82.91
42385;BME280;28042;43.986;22.860;2023-02-20T01:09:09;101540.38;;;9.03;83.90
42385;BME280;28042;43.986;22.860;2023-02-20T01:11:34;101546.81;;;8.94;84.43
42385;BME280;28042;43.986;22.860;2023-02-20T01:13:59;101560.94;;;8.89;84.92
42385;BME280;28042;43.986;22.860;2023-02-20T01:16:25;101564.47;;;8.82;85.80
42385;BME280;28042;43.986;22.860;2023-02-20T01:18:50;101572.28;;;8.76;86.71
42385;BME280;28042;43.986;22.860;2023-02-20T01:21:15;101579.25;;;8.71;86.85
42385;BME280;28042;43.986;22.860;2023-02-20T01:23:41;101591.28;;;8.68;87.77
42385;BME280;28042;43.986;22.860;2023-02-20T01:26:06;101588.56;;;8.60;88.16
42385;BME280;28042;43.986;22.860;2023-02-20T01:28:32;101580.34;;;8.52;89.07
42385;BME280;28042;43.986;22.860;2023-02-20T01:30:57;101581.34;;;8.43;89.68
42385;BME280;28042;43.986;22.860;2023-02-20T01:33:22;101578.91;;;8.40;90.38
42385;BME280;28042;43.986;22.860;2023-02-20T01:35:48;101563.72;;;8.29;90.91
42385;BME280;28042;43.986;22.860;2023-02-20T01:38:13;101557.38;;;8.20;91.98
42385;BME280;28042;43.986;22.860;2023-02-20T01:40:45;101565.53;;;8.20;92.46
42385;BME280;28042;43.986;22.860;2023-02-20T01:43:10;101570.69;;;8.32;92.64
42385;BME280;28042;43.986;22.860;2023-02-20T01:45:36;101583.69;;;8.38;91.31
42385;BME280;28042;43.986;22.860;2023-02-20T01:48:02;101588.25;;;8.37;90.84
42385;BME280;28042;43.986;22.860;2023-02-20T01:50:29;101595.28;;;8.48;88.96
42385;BME280;28042;43.986;22.860;2023-02-20T01:52:57;101588.28;;;8.80;87.51
42385;BME280;28042;43.986;22.860;2023-02-20T01:55:36;101569.66;;;9.09;85.53
42385;BME280;28042;43.986;22.860;2023-02-20T01:58:04;101567.63;;;9.19;84.95
42385;BME280;28042;43.986;22.860;2023-02-20T02:00:30;101555.44;;;9.48;82.77
42385;BME280;28042;43.986;22.860;2023-02-20T02:03:00;101541.81;;;9.40;82.82
42385;BME280;28042;43.986;22.860;2023-02-20T02:05:28;101545.53;;;9.47;81.91
42385;BME280;28042;43.986;22.860;2023-02-20T02:07:55;101529.53;;;9.52;81.48
42385;BME280;28042;43.986;22.860;2023-02-20T02:10:25;101527.84;;;9.43;81.43
42385;BME280;28042;43.986;22.860;2023-02-20T02:12:53;101536.69;;;9.37;81.32
42385;BME280;28042;43.986;22.860;2023-02-20T02:15:20;101535.66;;;9.29;81.59
42385;BME280;28042;43.986;22.860;2023-02-20T02:31:57;101590.44;;;9.26;78.25
42385;BME280;28042;43.986;22.860;2023-02-20T02:45:02;101591.84;;;9.55;68.71
42385;BME280;28042;43.986;22.860;2023-02-20T02:47:40;101622.84;;;9.70;67.35
42385;BME280;28042;43.986;22.860;2023-02-20T02:50:12;101596.28;;;9.56;68.12
42385;BME280;28042;43.986;22.860;2023-02-20T02:52:40;101624.03;;;9.59;68.34
42385;BME280;28042;43.986;22.860;2023-02-20T02:55:21;101618.59;;;9.59;68.12
42385;BME280;28042;43.986;22.860;2023-02-20T02:57:47;101608.03;;;9.56;69.23
42385;BME280;28042;43.986;22.860;2023-02-20T03:00:15;101620.44;;;9.51;70.29
42385;BME280;28042;43.986;22.860;2023-02-20T03:03:03;101612.75;;;9.46;70.48
42385;BME280;28042;43.986;22.860;2023-02-20T03:11:18;101632.81;;;9.29;71.11
42385;BME280;28042;43.986;22.860;2023-02-20T03:13:52;101641.50;;;9.24;71.12
42385;BME280;28042;43.986;22.860;2023-02-20T03:16:43;101632.97;;;9.19;71.78
42385;BME280;28042;43.986;22.860;2023-02-20T03:19:10;101649.13;;;9.13;72.43
42385;BME280;28042;43.986;22.860;2023-02-20T03:21:38;101649.22;;;9.03;72.46
42385;BME280;28042;43.986;22.860;2023-02-20T03:24:04;101657.69;;;8.92;70.10
42385;BME280;28042;43.986;22.860;2023-02-20T03:26:32;101656.38;;;8.96;67.82
42385;BME280;28042;43.986;22.860;2023-02-20T03:29:05;101663.34;;;8.98;65.61
42385;BME280;28042;43.986;22.860;2023-02-20T03:31:33;101677.44;;;8.94;66.24
42385;BME280;28042;43.986;22.860;2023-02-20T03:36:50;101697.84;;;8.90;65.44
42385;BME280;28042;43.986;22.860;2023-02-20T03:39:38;101705.94;;;8.82;65.72
42385;BME280;28042;43.986;22.860;2023-02-20T03:42:23;101707.25;;;8.69;65.38
42385;BME280;28042;43.986;22.860;2023-02-20T03:45:07;101713.00;;;8.66;66.12
42385;BME280;28042;43.986;22.860;2023-02-20T03:47:35;101718.19;;;8.52;66.46
42385;BME280;28042;43.986;22.860;2023-02-20T03:50:01;101717.47;;;8.49;66.19
42385;BME280;28042;43.986;22.860;2023-02-20T03:52:29;101715.25;;;8.45;66.86
42385;BME280;28042;43.986;22.860;2023-02-20T03:54:54;101730.16;;;8.41;66.68
42385;BME280;28042;43.986;22.860;2023-02-20T03:57:21;101727.66;;;8.30;67.72
42385;BME280;28042;43.986;22.860;2023-02-20T04:02:53;101714.00;;;8.21;68.22
42385;BME280;28042;43.986;22.860;2023-02-20T04:05:20;101721.25;;;8.13;68.72
42385;BME280;28042;43.986;22.860;2023-02-20T04:08:00;101714.47;;;7.99;69.58
42385;BME280;28042;43.986;22.860;2023-02-20T04:10:30;101719.38;;;7.96;69.92
42385;BME280;28042;43.986;22.860;2023-02-20T04:12:59;101730.09;;;7.97;70.37
42385;BME280;28042;43.986;22.860;2023-02-20T04:15:25;101726.38;;;7.80;70.85
42385;BME280;28042;43.986;22.860;2023-02-20T04:18:13;101737.09;;;7.82;71.77
42385;BME280;28042;43.986;22.860;2023-02-20T04:20:37;101747.88;;;7.74;72.15
42385;BME280;28042;43.986;22.860;2023-02-20T04:23:09;101752.22;;;7.67;71.76
42385;BME280;28042;43.986;22.860;2023-02-20T04:28:02;101762.75;;;7.70;71.07
42385;BME280;28042;43.986;22.860;2023-02-20T04:30:28;101765.97;;;7.55;71.49
42385;BME280;28042;43.986;22.860;2023-02-20T04:32:53;101768.41;;;7.58;71.08
42385;BME280;28042;43.986;22.860;2023-02-20T04:35:19;101778.31;;;7.50;71.97
42385;BME280;28042;43.986;22.860;2023-02-20T04:37:44;101778.56;;;7.56;71.71
42385;BME280;28042;43.986;22.860;2023-02-20T04:40:10;101764.75;;;7.50;71.64
42385;BME280;28042;43.986;22.860;2023-02-20T04:42:36;101770.31;;;7.48;71.69
42385;BME280;28042;43.986;22.860;2023-02-20T04:45:01;101782.19;;;7.47;71.71
42385;BME280;28042;43.986;22.860;2023-02-20T04:47:27;101779.16;;;7.50;72.02
42385;BME280;28042;43.986;22.860;2023-02-20T04:49:52;101785.59;;;7.49;71.49
42385;BME280;28042;43.986;22.860;2023-02-20T04:52:17;101783.34;;;7.45;71.44
42385;BME280;28042;43.986;22.860;2023-02-20T04:54:42;101791.84;;;7.32;71.96
42385;BME280;28042;43.986;22.860;2023-02-20T04:57:08;101802.84;;;7.21;72.71
42385;BME280;28042;43.986;22.860;2023-02-20T04:59:33;101798.75;;;7.17;72.66
42385;BME280;28042;43.986;22.860;2023-02-20T05:01:58;101803.78;;;7.02;73.11
42385;BME280;28042;43.986;22.860;2023-02-20T05:04:26;101800.22;;;7.01;73.61
42385;BME280;28042;43.986;22.860;2023-02-20T05:06:52;101800.84;;;6.95;73.30
42385;BME280;28042;43.986;22.860;2023-02-20T05:09:18;101803.34;;;7.06;72.04
42385;BME280;28042;43.986;22.860;2023-02-20T05:11:44;101813.31;;;7.16;71.78
42385;BME280;28042;43.986;22.860;2023-02-20T05:14:09;101810.47;;;7.17;71.36
42385;BME280;28042;43.986;22.860;2023-02-20T05:16:38;101815.28;;;7.23;70.29
42385;BME280;28042;43.986;22.860;2023-02-20T05:19:04;101818.16;;;7.22;70.41
42385;BME280;28042;43.986;22.860;2023-02-20T05:21:29;101823.75;;;7.11;71.41
42385;BME280;28042;43.986;22.860;2023-02-20T05:24:13;101823.09;;;6.89;72.17
42385;BME280;28042;43.986;22.860;2023-02-20T05:26:39;101837.53;;;6.80;72.39
42385;BME280;28042;43.986;22.860;2023-02-20T05:29:04;101835.66;;;6.90;72.01
42385;BME280;28042;43.986;22.860;2023-02-20T05:31:30;101839.38;;;6.89;72.23
42385;BME280;28042;43.986;22.860;2023-02-20T05:33:55;101854.66;;;6.80;72.68
42385;BME280;28042;43.986;22.860;2023-02-20T05:36:20;101855.94;;;6.76;72.60
42385;BME280;28042;43.986;22.860;2023-02-20T05:38:45;101860.81;;;6.73;72.87
42385;BME280;28042;43.986;22.860;2023-02-20T05:41:16;101856.97;;;6.66;72.44
42385;BME280;28042;43.986;22.860;2023-02-20T05:43:41;101861.97;;;6.61;71.34
42385;BME280;28042;43.986;22.860;2023-02-20T05:46:07;101858.53;;;6.59;72.25
42385;BME280;28042;43.986;22.860;2023-02-20T05:48:32;101862.25;;;6.58;73.49
42385;BME280;28042;43.986;22.860;2023-02-20T05:50:58;101857.81;;;6.57;74.61
42385;BME280;28042;43.986;22.860;2023-02-20T05:53:23;101853.94;;;6.69;74.21
42385;BME280;28042;43.986;22.860;2023-02-20T05:55:51;101848.97;;;6.74;73.53
42385;BME280;28042;43.986;22.860;2023-02-20T05:58:16;101862.50;;;6.93;71.71
42385;BME280;28042;43.986;22.860;2023-02-20T06:00:41;101856.50;;;6.99;70.82
42385;BME280;28042;43.986;22.860;2023-02-20T06:03:07;101839.78;;;7.04;69.66
42385;BME280;28042;43.986;22.860;2023-02-20T06:05:34;101857.91;;;7.13;68.56
42385;BME280;28042;43.986;22.860;2023-02-20T06:08:00;101856.75;;;7.16;68.68
42385;BME280;28042;43.986;22.860;2023-02-20T06:10:26;101859.84;;;7.21;68.18
42385;BME280;28042;43.986;22.860;2023-02-20T06:12:51;101867.28;;;7.19;68.19
42385;BME280;28042;43.986;22.860;2023-02-20T06:15:16;101873.84;;;7.26;67.78
42385;BME280;28042;43.986;22.860;2023-02-20T06:17:42;101886.97;;;7.30;67.46
42385;BME280;28042;43.986;22.860;2023-02-20T06:20:07;101885.53;;;7.36;67.69
42385;BME280;28042;43.986;22.860;2023-02-20T06:22:33;101897.06;;;7.38;67.44
42385;BME280;28042;43.986;22.860;2023-02-20T06:24:58;101910.06;;;7.44;66.88
42385;BME280;28042;43.986;22.860;2023-02-20T06:27:24;101911.34;;;7.50;67.16
42385;BME280;28042;43.986;22.860;2023-02-20T06:29:49;101922.75;;;7.53;66.21
42385;BME280;28042;43.986;22.860;2023-02-20T06:32:14;101926.91;;;7.57;66.16
42385;BME280;28042;43.986;22.860;2023-02-20T06:34:40;101922.88;;;7.61;65.84
42385;BME280;28042;43.986;22.860;2023-02-20T06:37:05;101939.16;;;7.61;65.81
42385;BME280;28042;43.986;22.860;2023-02-20T06:39:31;101946.56;;;7.69;65.77
42385;BME280;28042;43.986;22.860;2023-02-20T06:41:56;101950.16;;;7.70;65.69
42385;BME280;28042;43.986;22.860;2023-02-20T06:44:22;101944.00;;;7.68;64.52
42385;BME280;28042;43.986;22.860;2023-02-20T06:46:47;101960.41;;;7.76;63.96
42385;BME280;28042;43.986;22.860;2023-02-20T06:49:13;101961.81;;;7.80;63.88
42385;BME280;28042;43.986;22.860;2023-02-20T06:51:38;101956.53;;;7.78;63.00
42385;BME280;28042;43.986;22.860;2023-02-20T06:54:04;101955.69;;;7.78;62.05
42385;BME280;28042;43.986;22.860;2023-02-20T06:56:31;101953.97;;;7.77;62.39
42385;BME280;28042;43.986;22.860;2023-02-20T06:58:57;101948.84;;;7.74;60.76
42385;BME280;28042;43.986;22.860;2023-02-20T07:01:24;101951.41;;;7.75;60.60
42385;BME280;28042;43.986;22.860;2023-02-20T07:03:53;101952.28;;;7.76;60.59
42385;BME280;28042;43.986;22.860;2023-02-20T07:06:19;101948.59;;;7.67;60.05
42385;BME280;28042;43.986;22.860;2023-02-20T07:08:44;101951.47;;;7.65;60.20
42385;BME280;28042;43.986;22.860;2023-02-20T07:11:10;101954.19;;;7.65;59.73
42385;BME280;28042;43.986;22.860;2023-02-20T07:13:35;101951.47;;;7.65;59.54
42385;BME280;28042;43.986;22.860;2023-02-20T07:16:01;101958.72;;;7.75;59.67
42385;BME280;28042;43.986;22.860;2023-02-20T07:18:26;101973.22;;;7.93;58.54
42385;BME280;28042;43.986;22.860;2023-02-20T07:20:52;101946.97;;;8.11;56.97
42385;BME280;28042;43.986;22.860;2023-02-20T07:23:18;101954.91;;;8.22;56.58
42385;BME280;28042;43.986;22.860;2023-02-20T07:25:43;101961.25;;;8.41;56.51
42385;BME280;28042;43.986;22.860;2023-02-20T07:28:09;101959.34;;;8.51;55.45
42385;BME280;28042;43.986;22.860;2023-02-20T07:30:34;101954.72;;;8.61;55.17
42385;BME280;28042;43.986;22.860;2023-02-20T07:32:59;101943.25;;;8.75;54.55
42385;BME280;28042;43.986;22.860;2023-02-20T07:35:25;101952.00;;;8.79;53.66
42385;BME280;28042;43.986;22.860;2023-02-20T07:37:50;101951.41;;;8.93;54.12
42385;BME280;28042;43.986;22.860;2023-02-20T07:40:15;101959.81;;;9.00;53.96
42385;BME280;28042;43.986;22.860;2023-02-20T07:42:41;101964.66;;;9.06;52.51
42385;BME280;28042;43.986;22.860;2023-02-20T07:45:06;101946.69;;;9.13;51.06
42385;BME280;28042;43.986;22.860;2023-02-20T07:47:32;101966.78;;;9.20;49.79
42385;BME280;28042;43.986;22.860;2023-02-20T07:49:57;101980.88;;;9.33;48.98
42385;BME280;28042;43.986;22.860;2023-02-20T07:52:23;101982.97;;;9.40;48.69
42385;BME280;28042;43.986;22.860;2023-02-20T07:54:48;101987.13;;;9.52;48.34
42385;BME280;28042;43.986;22.860;2023-02-20T07:57:13;101982.00;;;9.49;47.81
42385;BME280;28042;43.986;22.860;2023-02-20T07:59:40;101986.91;;;9.71;48.01
42385;BME280;28042;43.986;22.860;2023-02-20T08:02:05;101976.75;;;9.81;47.73
42385;BME280;28042;43.986;22.860;2023-02-20T08:04:31;101983.09;;;9.82;47.04
42385;BME280;28042;43.986;22.860;2023-02-20T08:06:56;101987.75;;;9.98;47.37
42385;BME280;28042;43.986;22.860;2023-02-20T08:09:22;101982.13;;;9.91;46.61
42385;BME280;28042;43.986;22.860;2023-02-20T08:11:47;101995.50;;;10.10;46.43
42385;BME280;28042;43.986;22.860;2023-02-20T08:14:13;101997.38;;;10.10;44.17
42385;BME280;28042;43.986;22.860;2023-02-20T08:16:38;102005.59;;;10.18;43.69
42385;BME280;28042;43.986;22.860;2023-02-20T08:19:04;102009.53;;;10.24;43.06
42385;BME280;28042;43.986;22.860;2023-02-20T08:21:29;101997.63;;;10.25;42.05
42385;BME280;28042;43.986;22.860;2023-02-20T08:23:54;102008.38;;;10.26;42.66
42385;BME280;28042;43.986;22.860;2023-02-20T08:26:20;102015.63;;;10.43;42.29
42385;BME280;28042;43.986;22.860;2023-02-20T08:28:46;102020.78;;;10.55;42.08
42385;BME280;28042;43.986;22.860;2023-02-20T08:31:11;102036.03;;;10.39;41.52
42385;BME280;28042;43.986;22.860;2023-02-20T08:33:37;102028.25;;;10.44;42.00
42385;BME280;28042;43.986;22.860;2023-02-20T08:36:02;102034.75;;;10.60;40.56
42385;BME280;28042;43.986;22.860;2023-02-20T08:40:53;102045.41;;;10.79;40.92
42385;BME280;28042;43.986;22.860;2023-02-20T08:43:19;102043.59;;;10.96;40.23
42385;BME280;28042;43.986;22.860;2023-02-20T08:45:44;102044.09;;;11.08;39.68
42385;BME280;28042;43.986;22.860;2023-02-20T08:48:10;102040.69;;;10.97;38.72
42385;BME280;28042;43.986;22.860;2023-02-20T08:50:35;102053.13;;;11.00;39.19
42385;BME280;28042;43.986;22.860;2023-02-20T08:53:00;102057.34;;;10.78;39.59
42385;BME280;28042;43.986;22.860;2023-02-20T08:55:26;102043.38;;;10.89;39.66
42385;BME280;28042;43.986;22.860;2023-02-20T08:57:51;102032.66;;;10.96;39.71
42385;BME280;28042;43.986;22.860;2023-02-20T09:00:17;102014.56;;;11.03;39.49
42385;BME280;28042;43.986;22.860;2023-02-20T09:02:43;102019.38;;;11.17;39.18
42385;BME280;28042;43.986;22.860;2023-02-20T09:05:08;102026.72;;;11.57;38.32
42385;BME280;28042;43.986;22.860;2023-02-20T09:07:34;102015.09;;;11.80;37.30
42385;BME280;28042;43.986;22.860;2023-02-20T09:09:59;102012.66;;;12.01;37.38
42385;BME280;28042;43.986;22.860;2023-02-20T09:12:24;102024.66;;;11.59;37.33
42385;BME280;28042;43.986;22.860;2023-02-20T09:14:50;102011.69;;;11.53;37.83
42385;BME280;28042;43.986;22.860;2023-02-20T09:17:15;102009.78;;;11.70;37.98
42385;BME280;28042;43.986;22.860;2023-02-20T09:19:40;102019.03;;;11.53;37.88
42385;BME280;28042;43.986;22.860;2023-02-20T09:22:06;102013.41;;;11.30;37.94
42385;BME280;28042;43.986;22.860;2023-02-20T09:24:31;102010.66;;;11.46;38.94
42385;BME280;28042;43.986;22.860;2023-02-20T09:27:01;102019.56;;;11.56;38.21
42385;BME280;28042;43.986;22.860;2023-02-20T09:29:27;102009.66;;;11.47;38.13
42385;BME280;28042;43.986;22.860;2023-02-20T09:31:53;101996.84;;;11.48;37.72
42385;BME280;28042;43.986;22.860;2023-02-20T09:34:18;102021.75;;;11.53;37.66
42385;BME280;28042;43.986;22.860;2023-02-20T09:36:44;101998.38;;;11.34;37.97
42385;BME280;28042;43.986;22.860;2023-02-20T09:39:09;101996.66;;;11.49;37.81
42385;BME280;28042;43.986;22.860;2023-02-20T09:41:45;101983.31;;;11.54;37.79
42385;BME280;28042;43.986;22.860;2023-02-20T09:44:17;102005.22;;;11.22;37.83
42385;BME280;28042;43.986;22.860;2023-02-20T09:46:44;102007.25;;;11.20;37.60
42385;BME280;28042;43.986;22.860;2023-02-20T09:51:56;101993.25;;;11.23;37.84
42385;BME280;28042;43.986;22.860;2023-02-20T09:54:25;102008.78;;;11.14;38.22
42385;BME280;28042;43.986;22.860;2023-02-20T09:56:53;102004.16;;;10.90;38.57
42385;BME280;28042;43.986;22.860;2023-02-20T09:59:21;101999.69;;;10.81;38.43
42385;BME280;28042;43.986;22.860;2023-02-20T10:01:54;102001.03;;;10.77;38.39
42385;BME280;28042;43.986;22.860;2023-02-20T10:04:21;101979.53;;;10.74;38.77
42385;BME280;28042;43.986;22.860;2023-02-20T10:06:49;101993.03;;;10.84;39.15
42385;BME280;28042;43.986;22.860;2023-02-20T10:09:15;101987.91;;;10.81;38.33
42385;BME280;28042;43.986;22.860;2023-02-20T10:26:49;102007.41;;;11.35;35.57
42385;BME280;28042;43.986;22.860;2023-02-20T10:29:20;101994.25;;;11.54;35.16
42385;BME280;28042;43.986;22.860;2023-02-20T10:34:22;102000.06;;;11.84;33.60
42385;BME280;28042;43.986;22.860;2023-02-20T10:36:53;101988.03;;;12.09;33.85
42385;BME280;28042;43.986;22.860;2023-02-20T10:39:21;101991.66;;;12.41;33.68
42385;BME280;28042;43.986;22.860;2023-02-20T10:49:10;101992.56;;;12.64;30.74
42385;BME280;28042;43.986;22.860;2023-02-20T10:51:38;101997.56;;;12.61;28.81
42385;BME280;28042;43.986;22.860;2023-02-20T10:54:06;102005.81;;;12.53;29.25
42385;BME280;28042;43.986;22.860;2023-02-20T10:56:44;102000.91;;;12.71;29.30
42385;BME280;28042;43.986;22.860;2023-02-20T10:59:17;102006.81;;;12.83;29.80
42385;BME280;28042;43.986;22.860;2023-02-20T11:01:43;102010.44;;;13.06;29.31
42385;BME280;28042;43.986;22.860;2023-02-20T11:04:09;102014.28;;;12.97;28.94
42385;BME280;28042;43.986;22.860;2023-02-20T11:06:39;102010.06;;;13.09;28.60
42385;BME280;28042;43.986;22.860;2023-02-20T11:09:04;102011.41;;;13.21;28.69
42385;BME280;28042;43.986;22.860;2023-02-20T11:11:39;102013.78;;;13.16;27.93
42385;BME280;28042;43.986;22.860;2023-02-20T11:17:03;102000.44;;;13.21;28.99
42385;BME280;28042;43.986;22.860;2023-02-20T11:19:33;101993.72;;;13.24;28.00
42385;BME280;28042;43.986;22.860;2023-02-20T11:22:02;102001.03;;;13.32;28.32
42385;BME280;28042;43.986;22.860;2023-02-20T11:24:29;101986.41;;;13.39;27.91
42385;BME280;28042;43.986;22.860;2023-02-20T11:27:14;101997.13;;;13.03;28.44
42385;BME280;28042;43.986;22.860;2023-02-20T11:29:42;101983.72;;;13.08;28.33
42385;BME280;28042;43.986;22.860;2023-02-20T11:34:42;101983.25;;;13.05;28.22
42385;BME280;28042;43.986;22.860;2023-02-20T11:37:09;101962.13;;;13.13;28.84
42385;BME280;28042;43.986;22.860;2023-02-20T11:39:36;101964.84;;;13.13;28.72
42385;BME280;28042;43.986;22.860;2023-02-20T11:42:10;101965.69;;;13.14;29.20
42385;BME280;28042;43.986;22.860;2023-02-20T11:44:36;101947.06;;;13.09;29.08
42385;BME280;28042;43.986;22.860;2023-02-20T11:49:42;101944.38;;;13.01;29.55
42385;BME280;28042;43.986;22.860;2023-02-20T11:52:17;101949.13;;;13.07;29.74
42385;BME280;28042;43.986;22.860;2023-02-20T11:54:43;101954.38;;;13.17;29.23
42385;BME280;28042;43.986;22.860;2023-02-20T11:59:36;101942.56;;;13.16;29.97
42385;BME280;28042;43.986;22.860;2023-02-20T12:02:17;101928.84;;;13.39;30.61
42385;BME280;28042;43.986;22.860;2023-02-20T12:09:55;101906.19;;;13.60;31.92
42385;BME280;28042;43.986;22.860;2023-02-20T12:12:22;101902.56;;;13.45;32.16
42385;BME280;28042;43.986;22.860;2023-02-20T12:14:48;101913.63;;;13.37;31.89
42385;BME280;28042;43.986;22.860;2023-02-20T12:17:22;101918.72;;;13.25;33.12
42385;BME280;28042;43.986;22.860;2023-02-20T12:22:19;101915.66;;;13.20;33.63
42385;BME280;28042;43.986;22.860;2023-02-20T12:25:02;101908.06;;;13.45;33.67
42385;BME280;28042;43.986;22.860;2023-02-20T12:36:00;101913.25;;;13.40;34.25
42385;BME280;28042;43.986;22.860;2023-02-20T12:43:25;101921.09;;;13.43;35.40
42385;BME280;28042;43.986;22.860;2023-02-20T12:48:45;101920.13;;;13.36;36.16
42385;BME280;28042;43.986;22.860;2023-02-20T12:51:21;101942.66;;;13.46;35.54
42385;BME280;28042;43.986;22.860;2023-02-20T12:56:57;101919.28;;;13.35;36.14
42385;BME280;28042;43.986;22.860;2023-02-20T12:59:39;101930.13;;;13.28;35.74
42385;BME280;28042;43.986;22.860;2023-02-20T13:02:21;101926.50;;;13.13;36.74
42385;BME280;28042;43.986;22.860;2023-02-20T13:04:53;101928.91;;;13.08;36.54
42385;BME280;28042;43.986;22.860;2023-02-20T13:07:25;101930.63;;;13.09;36.66
42385;BME280;28042;43.986;22.860;2023-02-20T13:12:18;101924.56;;;13.22;37.11
42385;BME280;28042;43.986;22.860;2023-02-20T13:17:16;101931.00;;;13.06;37.89
42385;BME280;28042;43.986;22.860;2023-02-20T13:22:23;101923.56;;;13.15;38.12
42385;BME280;28042;43.986;22.860;2023-02-20T13:24:49;101926.38;;;13.29;38.17
42385;BME280;28042;43.986;22.860;2023-02-20T13:30:20;101921.84;;;13.37;37.93
42385;BME280;28042;43.986;22.860;2023-02-20T13:32:47;101935.25;;;13.32;37.64
42385;BME280;28042;43.986;22.860;2023-02-20T13:37:56;101929.41;;;13.35;37.71
42385;BME280;28042;43.986;22.860;2023-02-20T13:40:33;101931.38;;;13.26;37.79
42385;BME280;28042;43.986;22.860;2023-02-20T13:45:37;101919.28;;;13.35;38.35
42385;BME280;28042;43.986;22.860;2023-02-20T13:50:46;101920.41;;;13.03;38.70
42385;BME280;28042;43.986;22.860;2023-02-20T13:53:12;101919.06;;;12.99;38.46
42385;BME280;28042;43.986;22.860;2023-02-20T13:55:37;101942.03;;;12.98;38.47
42385;BME280;28042;43.986;22.860;2023-02-20T13:58:13;101930.59;;;12.94;38.42
42385;BME280;28042;43.986;22.860;2023-02-20T14:03:28;101934.97;;;12.81;38.38
42385;BME280;28042;43.986;22.860;2023-02-20T14:06:07;101944.69;;;12.83;38.63
42385;BME280;28042;43.986;22.860;2023-02-20T14:08:33;101944.75;;;12.98;38.76
42385;BME280;28042;43.986;22.860;2023-02-20T14:13:30;101945.34;;;12.85;39.10
42385;BME280;28042;43.986;22.860;2023-02-20T14:15:57;101934.59;;;12.84;39.46
42385;BME280;28042;43.986;22.860;2023-02-20T14:20:48;101950.47;;;12.88;39.84
42385;BME280;28042;43.986;22.860;2023-02-20T14:23:17;101956.94;;;12.95;39.65
42385;BME280;28042;43.986;22.860;2023-02-20T14:25:53;101945.25;;;12.79;39.89
42385;BME280;28042;43.986;22.860;2023-02-20T14:28:19;101950.03;;;12.77;40.06
42385;BME280;28042;43.986;22.860;2023-02-20T14:30:44;101962.88;;;12.76;40.29
42385;BME280;28042;43.986;22.860;2023-02-20T14:33:18;101940.88;;;12.69;40.09
42385;BME280;28042;43.986;22.860;2023-02-20T14:40:53;101951.81;;;12.69;40.47
42385;BME280;28042;43.986;22.860;2023-02-20T14:45:44;101956.56;;;12.76;41.18
42385;BME280;28042;43.986;22.860;2023-02-20T14:48:24;101949.38;;;12.74;41.35
42385;BME280;28042;43.986;22.860;2023-02-20T14:51:01;101954.66;;;12.53;41.29
42385;BME280;28042;43.986;22.860;2023-02-20T14:53:26;101943.13;;;12.35;41.73
42385;BME280;28042;43.986;22.860;2023-02-20T14:55:52;101928.03;;;12.39;42.09
42385;BME280;28042;43.986;22.860;2023-02-20T14:58:18;101939.22;;;12.29;42.34
42385;BME280;28042;43.986;22.860;2023-02-20T15:00:44;101924.88;;;12.27;42.15
42385;BME280;28042;43.986;22.860;2023-02-20T15:03:16;101926.25;;;12.23;42.68
42385;BME280;28042;43.986;22.860;2023-02-20T15:05:43;101938.72;;;12.26;42.87
42385;BME280;28042;43.986;22.860;2023-02-20T15:08:14;101927.31;;;12.14;43.27